Time;durP1;ratioP1;P1;durP2;ratioP2;P2;SDS_P1;SDS_P2;PMS_P1;PMS_P2;Temp;Humidity;BMP_temperature;BMP_pressure;BME280_temperature;BME280_humidity;BME280_pressure;Samples;Min_cycle;Max_cycle;Signal;HPM_P1;HPM_P2
2023/12/17 00:02:21;;;;;;;5.03;3.93;;;;;;;;;;5107041;27;20581;-78
2023/12/17 00:04:46;;;;;;;5.90;3.40;;;;;;;;;;5118789;27;20173;-78
2023/12/17 00:07:11;;;;;;;3.20;2.90;;;;;;;;;;5113897;27;20181;-78
2023/12/17 00:09:36;;;;;;;6.30;3.50;;;;;;;;;;5107203;27;20247;-78
2023/12/17 00:12:01;;;;;;;3.23;2.93;;;;;;;;;;5107764;27;20202;-78
2023/12/17 00:14:27;;;;;;;4.70;3.33;;;;;;;;;;5108965;27;20180;-78
2023/12/17 00:16:52;;;;;;;5.20;3.10;;;;;;;;;;5112459;27;20171;-78
2023/12/17 00:19:17;;;;;;;4.20;2.93;;;;;;;;;;5124614;27;20176;-78
2023/12/17 00:21:42;;;;;;;4.80;3.57;;;;;;;;;;5105290;27;20176;-78
2023/12/17 00:24:07;;;;;;;4.67;3.10;;;;;;;;;;5106679;27;20199;-78
2023/12/17 00:26:32;;;;;;;4.17;3.23;;;;;;;;;;5119133;27;20180;-78
2023/12/17 00:28:58;;;;;;;6.97;3.40;;;;;;;;;;5127520;27;20168;-78
2023/12/17 00:31:23;;;;;;;7.17;3.90;;;;;;;;;;5134089;27;20210;-78
2023/12/17 00:33:48;;;;;;;7.63;3.63;;;;;;;;;;5126896;27;20172;-78
2023/12/17 00:36:13;;;;;;;6.20;3.20;;;;;;;;;;5122001;27;20196;-78
2023/12/17 00:38:39;;;;;;;5.73;3.07;;;;;;;;;;5122618;27;20171;-78
2023/12/17 00:41:04;;;;;;;4.17;3.40;;;;;;;;;;5108429;27;20202;-78
2023/12/17 00:43:29;;;;;;;5.20;3.60;;;;;;;;;;5134024;27;20272;-78
2023/12/17 00:45:54;;;;;;;3.70;2.90;;;;;;;;;;5118548;27;20179;-78
2023/12/17 00:48:19;;;;;;;3.70;3.20;;;;;;;;;;5130240;27;20226;-78
2023/12/17 00:50:45;;;;;;;3.20;2.90;;;;;;;;;;5110218;27;20268;-79
2023/12/17 00:53:10;;;;;;;4.07;3.07;;;;;;;;;;5109978;27;20179;-79
2023/12/17 00:55:35;;;;;;;4.00;3.37;;;;;;;;;;5135249;27;20258;-79
2023/12/17 00:58:00;;;;;;;3.40;2.53;;;;;;;;;;5126010;27;20168;-79
2023/12/17 01:00:26;;;;;;;8.70;2.83;;;;;;;;;;5113125;27;20183;-79
2023/12/17 01:02:51;;;;;;;6.50;3.60;;;;;;;;;;5113633;27;20179;-79
2023/12/17 01:05:16;;;;;;;4.93;2.80;;;;;;;;;;5131038;27;20183;-78
2023/12/17 01:07:41;;;;;;;4.53;2.67;;;;;;;;;;5116903;27;20175;-79
2023/12/17 01:10:07;;;;;;;4.03;2.50;;;;;;;;;;5117614;27;20223;-79
2023/12/17 01:12:32;;;;;;;4.57;2.60;;;;;;;;;;5117964;27;20267;-79
2023/12/17 01:14:57;;;;;;;4.40;2.87;;;;;;;;;;5109702;27;20167;-79
2023/12/17 01:17:22;;;;;;;4.10;2.90;;;;;;;;;;5117012;27;20185;-79
2023/12/17 01:19:47;;;;;;;4.40;2.87;;;;;;;;;;5119019;27;20179;-79
2023/12/17 01:22:13;;;;;;;5.90;2.83;;;;;;;;;;5114314;27;20187;-79
2023/12/17 01:24:39;;;;;;;3.77;2.73;;;;;;;;;;5119199;27;20176;-79
2023/12/17 01:27:04;;;;;;;4.83;3.03;;;;;;;;;;5115364;27;20210;-79
2023/12/17 01:29:29;;;;;;;3.67;2.77;;;;;;;;;;5131483;27;20200;-79
2023/12/17 01:31:57;;;;;;;3.13;2.57;;;;;;;;;;5129157;27;20183;-79
2023/12/17 01:34:22;;;;;;;4.93;2.87;;;;;;;;;;5113427;27;20183;-79
2023/12/17 01:36:49;;;;;;;2.57;2.30;;;;;;;;;;5123020;27;20192;-79
2023/12/17 01:39:14;;;;;;;4.63;3.20;;;;;;;;;;5110123;27;20180;-79
2023/12/17 01:41:39;;;;;;;17.97;10.83;;;;;;;;;;5121465;27;20203;-79
2023/12/17 01:44:04;;;;;;;4.40;3.47;;;;;;;;;;5114689;27;20203;-79
2023/12/17 01:46:29;;;;;;;6.13;4.30;;;;;;;;;;5117889;27;20205;-79
2023/12/17 01:48:55;;;;;;;8.23;3.87;;;;;;;;;;5132520;27;20215;-79
2023/12/17 01:51:20;;;;;;;7.90;4.30;;;;;;;;;;5116861;27;20199;-79
2023/12/17 01:53:45;;;;;;;7.67;4.37;;;;;;;;;;5107008;27;20194;-79
2023/12/17 01:56:12;;;;;;;7.60;6.00;;;;;;;;;;5114816;27;20228;-78
2023/12/17 01:58:37;;;;;;;9.37;5.20;;;;;;;;;;5113436;27;20169;-78
2023/12/17 02:01:03;;;;;;;7.47;4.93;;;;;;;;;;5108293;28;20186;-78
2023/12/17 02:03:28;;;;;;;7.33;5.03;;;;;;;;;;5129567;27;20208;-78
2023/12/17 02:05:54;;;;;;;6.00;3.83;;;;;;;;;;5114215;27;20187;-78
2023/12/17 02:08:19;;;;;;;4.40;3.70;;;;;;;;;;5133438;27;20219;-78
2023/12/17 02:10:44;;;;;;;5.67;4.03;;;;;;;;;;5113649;27;20191;-78
2023/12/17 02:13:10;;;;;;;8.53;5.40;;;;;;;;;;5132873;27;20178;-78
2023/12/17 02:15:38;;;;;;;8.47;5.27;;;;;;;;;;5121271;27;20175;-78
2023/12/17 02:18:03;;;;;;;8.03;4.50;;;;;;;;;;5114231;27;20164;-78
2023/12/17 02:20:29;;;;;;;4.77;3.43;;;;;;;;;;5114820;27;20187;-78
2023/12/17 02:22:56;;;;;;;4.83;3.57;;;;;;;;;;5110863;27;20182;-78
2023/12/17 02:25:21;;;;;;;7.30;4.60;;;;;;;;;;5109739;27;20269;-78
2023/12/17 02:27:46;;;;;;;8.40;4.70;;;;;;;;;;5116492;27;20176;-78
2023/12/17 02:30:12;;;;;;;8.27;5.40;;;;;;;;;;5108628;27;20200;-78
2023/12/17 02:32:37;;;;;;;7.50;4.40;;;;;;;;;;5128031;27;20212;-78
2023/12/17 02:35:02;;;;;;;7.77;4.73;;;;;;;;;;5115929;27;20172;-78
2023/12/17 02:37:27;;;;;;;8.33;4.77;;;;;;;;;;5107426;27;20204;-78
2023/12/17 02:39:52;;;;;;;7.87;4.37;;;;;;;;;;5107481;28;20199;-78
2023/12/17 02:42:18;;;;;;;6.83;5.70;;;;;;;;;;5131098;27;20210;-78
2023/12/17 02:44:43;;;;;;;6.33;4.90;;;;;;;;;;5122318;27;20409;-78
2023/12/17 02:47:08;;;;;;;7.80;3.93;;;;;;;;;;5126336;27;20201;-78
2023/12/17 02:49:35;;;;;;;6.53;4.87;;;;;;;;;;5108516;27;20263;-78
2023/12/17 02:52:00;;;;;;;9.80;4.80;;;;;;;;;;5103233;28;20226;-78
2023/12/17 02:54:25;;;;;;;10.17;5.63;;;;;;;;;;5128273;27;20175;-78
2023/12/17 02:56:53;;;;;;;14.33;6.50;;;;;;;;;;5113181;27;20341;-78
2023/12/17 02:59:18;;;;;;;8.17;5.40;;;;;;;;;;5128611;27;20187;-78
2023/12/17 03:01:43;;;;;;;8.23;5.73;;;;;;;;;;5122645;27;20205;-78
2023/12/17 03:04:12;;;;;;;8.90;5.77;;;;;;;;;;5112856;27;20172;-78
2023/12/17 03:06:38;;;;;;;8.40;5.07;;;;;;;;;;5114306;27;20205;-78
2023/12/17 03:09:03;;;;;;;9.93;5.43;;;;;;;;;;5130044;27;20218;-78
2023/12/17 03:11:30;;;;;;;7.03;5.00;;;;;;;;;;5111159;27;20288;-78
2023/12/17 03:13:55;;;;;;;8.23;5.37;;;;;;;;;;5106370;28;20195;-78
2023/12/17 03:16:20;;;;;;;9.43;5.53;;;;;;;;;;5110836;28;20180;-78
2023/12/17 03:18:46;;;;;;;8.33;5.37;;;;;;;;;;5107366;28;20187;-78
2023/12/17 03:21:11;;;;;;;7.30;5.00;;;;;;;;;;5109388;28;20279;-78
2023/12/17 03:23:36;;;;;;;5.77;4.93;;;;;;;;;;5115701;28;20252;-78
2023/12/17 03:26:02;;;;;;;8.77;5.03;;;;;;;;;;5118860;28;20194;-78
2023/12/17 03:28:27;;;;;;;13.00;5.70;;;;;;;;;;5119608;28;20183;-78
2023/12/17 03:30:52;;;;;;;6.87;4.57;;;;;;;;;;5110464;27;20260;-78
2023/12/17 03:33:18;;;;;;;9.30;5.03;;;;;;;;;;5115804;28;20184;-78
2023/12/17 03:35:43;;;;;;;6.67;3.87;;;;;;;;;;5113273;28;20168;-78
2023/12/17 03:38:08;;;;;;;6.93;4.87;;;;;;;;;;5107741;28;20196;-78
2023/12/17 03:40:33;;;;;;;6.07;4.10;;;;;;;;;;5120381;27;20272;-78
2023/12/17 03:43:00;;;;;;;9.00;4.37;;;;;;;;;;5113957;28;20233;-78
2023/12/17 03:45:25;;;;;;;6.93;3.47;;;;;;;;;;5101927;28;20176;-78
2023/12/17 03:47:50;;;;;;;10.43;3.53;;;;;;;;;;5101699;28;20235;-78
2023/12/17 03:50:16;;;;;;;6.70;3.40;;;;;;;;;;5117882;28;20260;-78
2023/12/17 03:52:41;;;;;;;3.27;3.07;;;;;;;;;;5129989;27;20176;-78
2023/12/17 03:55:06;;;;;;;5.80;3.60;;;;;;;;;;5104644;28;20176;-78
2023/12/17 03:57:31;;;;;;;4.23;3.10;;;;;;;;;;5114241;28;20267;-78
2023/12/17 03:59:57;;;;;;;3.17;2.87;;;;;;;;;;5117582;27;20235;-78
2023/12/17 04:02:22;;;;;;;3.80;3.13;;;;;;;;;;5133935;27;20293;-78
2023/12/17 04:04:47;;;;;;;5.17;3.17;;;;;;;;;;5109835;28;20184;-78
2023/12/17 04:07:12;;;;;;;4.43;3.10;;;;;;;;;;5112185;28;20172;-78
2023/12/17 04:09:38;;;;;;;4.30;3.03;;;;;;;;;;5121372;27;20304;-78
2023/12/17 04:12:03;;;;;;;4.03;2.70;;;;;;;;;;5121782;27;20172;-78
2023/12/17 04:14:28;;;;;;;3.13;2.53;;;;;;;;;;5115998;27;20178;-78
2023/12/17 04:16:53;;;;;;;3.77;2.50;;;;;;;;;;5109773;27;20198;-78
2023/12/17 04:19:19;;;;;;;5.07;3.03;;;;;;;;;;5114284;27;20184;-78
2023/12/17 04:21:44;;;;;;;5.93;3.10;;;;;;;;;;5121650;27;20229;-78
2023/12/17 04:24:09;;;;;;;6.17;3.03;;;;;;;;;;5114701;27;20176;-78
2023/12/17 04:26:34;;;;;;;4.07;2.40;;;;;;;;;;5130738;27;20202;-78
2023/12/17 04:29:00;;;;;;;3.37;2.73;;;;;;;;;;5120124;27;20176;-78
2023/12/17 04:31:25;;;;;;;3.07;2.67;;;;;;;;;;5109121;28;20228;-79
2023/12/17 04:33:50;;;;;;;3.23;2.20;;;;;;;;;;5122248;27;20195;-79
2023/12/17 04:36:15;;;;;;;2.63;2.30;;;;;;;;;;5106698;27;20266;-79
2023/12/17 04:38:41;;;;;;;2.63;1.97;;;;;;;;;;5114686;27;20211;-79
2023/12/17 04:41:06;;;;;;;3.60;2.60;;;;;;;;;;5110352;28;20187;-79
2023/12/17 04:43:32;;;;;;;3.63;2.60;;;;;;;;;;5126525;27;20339;-79
2023/12/17 04:45:57;;;;;;;5.17;2.60;;;;;;;;;;5108457;27;20169;-79
2023/12/17 04:48:23;;;;;;;3.63;2.40;;;;;;;;;;5115938;27;20179;-79
2023/12/17 04:50:48;;;;;;;3.03;2.57;;;;;;;;;;5141101;27;20191;-79
2023/12/17 04:53:13;;;;;;;4.30;2.40;;;;;;;;;;5121726;27;20167;-79
2023/12/17 04:55:38;;;;;;;2.40;2.20;;;;;;;;;;5122017;27;20305;-79
2023/12/17 04:58:03;;;;;;;3.20;2.30;;;;;;;;;;5111459;27;20192;-79
2023/12/17 05:00:29;;;;;;;4.10;2.37;;;;;;;;;;5119928;27;20179;-79
2023/12/17 05:02:54;;;;;;;3.47;2.00;;;;;;;;;;5114594;27;20175;-79
2023/12/17 05:05:19;;;;;;;4.13;2.20;;;;;;;;;;5110419;27;20172;-79
2023/12/17 05:07:44;;;;;;;2.47;2.10;;;;;;;;;;5123060;27;20175;-79
2023/12/17 05:10:10;;;;;;;3.07;1.90;;;;;;;;;;5130104;27;20226;-79
2023/12/17 05:12:35;;;;;;;2.40;2.20;;;;;;;;;;5103914;28;20187;-78
2023/12/17 05:15:00;;;;;;;2.50;1.93;;;;;;;;;;5113588;27;20197;-79
2023/12/17 05:17:25;;;;;;;2.80;2.40;;;;;;;;;;5125294;27;20198;-79
2023/12/17 05:19:50;;;;;;;3.20;1.90;;;;;;;;;;5122221;27;20183;-79
2023/12/17 05:22:16;;;;;;;4.77;2.33;;;;;;;;;;5114603;27;20187;-79
2023/12/17 05:24:41;;;;;;;2.43;1.97;;;;;;;;;;5117713;27;20180;-79
2023/12/17 05:27:06;;;;;;;2.57;2.03;;;;;;;;;;5128869;27;20203;-79
2023/12/17 05:29:31;;;;;;;3.80;2.13;;;;;;;;;;5105505;27;20204;-79
2023/12/17 05:31:56;;;;;;;2.40;2.10;;;;;;;;;;5110129;27;20256;-79
2023/12/17 05:34:22;;;;;;;2.63;2.00;;;;;;;;;;5117208;27;20186;-79
2023/12/17 05:36:48;;;;;;;1.77;1.60;;;;;;;;;;5114933;27;20207;-79
2023/12/17 05:39:13;;;;;;;2.10;1.90;;;;;;;;;;5132428;27;20168;-79
2023/12/17 05:41:38;;;;;;;2.37;2.00;;;;;;;;;;5109513;27;20168;-79
2023/12/17 05:44:03;;;;;;;2.70;2.13;;;;;;;;;;5118605;27;20258;-79
2023/12/17 05:46:29;;;;;;;2.23;2.03;;;;;;;;;;5106946;27;20182;-78
2023/12/17 05:48:54;;;;;;;2.67;1.93;;;;;;;;;;5114557;27;20171;-79
2023/12/17 05:51:20;;;;;;;2.00;1.80;;;;;;;;;;5108399;27;20196;-79
2023/12/17 05:53:45;;;;;;;3.70;1.87;;;;;;;;;;5111791;27;20221;-79
2023/12/17 05:56:11;;;;;;;1.80;1.60;;;;;;;;;;5108361;27;20195;-78
2023/12/17 05:58:37;;;;;;;1.70;1.60;;;;;;;;;;5104838;27;20242;-79
2023/12/17 06:01:02;;;;;;;2.00;1.53;;;;;;;;;;5119714;27;20168;-79
2023/12/17 06:03:28;;;;;;;2.50;1.57;;;;;;;;;;5102820;28;20279;-79
2023/12/17 06:05:53;;;;;;;1.60;1.50;;;;;;;;;;5121387;27;20197;-79
2023/12/17 06:08:18;;;;;;;1.60;1.43;;;;;;;;;;5112492;27;20228;-79
2023/12/17 06:10:44;;;;;;;1.70;1.60;;;;;;;;;;5110773;27;20195;-79
2023/12/17 06:13:09;;;;;;;1.93;1.70;;;;;;;;;;5107764;28;20176;-79
2023/12/17 06:15:34;;;;;;;1.50;1.40;;;;;;;;;;5106964;28;20194;-79
2023/12/17 06:17:59;;;;;;;1.60;1.40;;;;;;;;;;5117313;27;20213;-79
2023/12/17 06:20:25;;;;;;;1.77;1.50;;;;;;;;;;5106388;28;20179;-79
2023/12/17 06:22:52;;;;;;;1.57;1.47;;;;;;;;;;5133323;27;20168;-79
2023/12/17 06:25:17;;;;;;;1.80;1.60;;;;;;;;;;5112506;27;20190;-79
2023/12/17 06:27:42;;;;;;;3.43;2.07;;;;;;;;;;5118667;27;20171;-79
2023/12/17 06:30:08;;;;;;;1.47;1.37;;;;;;;;;;5127985;27;20191;-79
2023/12/17 06:32:33;;;;;;;1.83;1.40;;;;;;;;;;5114830;27;20179;-79
2023/12/17 06:34:58;;;;;;;1.47;1.23;;;;;;;;;;5106260;27;20180;-80
2023/12/17 06:37:23;;;;;;;2.00;1.37;;;;;;;;;;5108399;27;20199;-79
2023/12/17 06:39:50;;;;;;;1.37;1.27;;;;;;;;;;5133056;27;20175;-79
2023/12/17 06:42:15;;;;;;;1.40;1.30;;;;;;;;;;5106492;27;20194;-79
2023/12/17 06:44:40;;;;;;;1.93;1.40;;;;;;;;;;5107255;28;20188;-79
2023/12/17 06:47:05;;;;;;;2.03;1.40;;;;;;;;;;5112442;27;20245;-80
2023/12/17 06:49:31;;;;;;;1.40;1.30;;;;;;;;;;5101805;27;20200;-80
2023/12/17 06:51:56;;;;;;;1.40;1.30;;;;;;;;;;5121250;27;20183;-80
2023/12/17 06:54:21;;;;;;;1.87;1.37;;;;;;;;;;5118764;27;20177;-80
2023/12/17 06:56:46;;;;;;;1.43;1.33;;;;;;;;;;5114669;27;20176;-80
2023/12/17 06:59:12;;;;;;;1.00;1.00;;;;;;;;;;5114256;27;20243;-79
2023/12/17 07:01:37;;;;;;;1.63;1.40;;;;;;;;;;5107140;27;20176;-80
2023/12/17 07:04:02;;;;;;;1.50;1.40;;;;;;;;;;5122228;27;20186;-80
2023/12/17 07:06:27;;;;;;;2.10;1.40;;;;;;;;;;5114658;27;20180;-80
2023/12/17 07:08:53;;;;;;;2.33;1.50;;;;;;;;;;5133580;27;20224;-80
2023/12/17 07:11:18;;;;;;;1.70;1.60;;;;;;;;;;5103162;28;20198;-80
2023/12/17 07:13:43;;;;;;;1.63;1.50;;;;;;;;;;5114017;27;20283;-80
2023/12/17 07:16:18;;;;;;;1.50;1.37;;;;;;;;;;5110685;28;20164;-80
2023/12/17 07:18:44;;;;;;;1.53;1.30;;;;;;;;;;5107256;28;20176;-80
2023/12/17 07:21:09;;;;;;;2.33;1.50;;;;;;;;;;5112896;28;20179;-80
2023/12/17 07:23:34;;;;;;;1.43;1.33;;;;;;;;;;5107407;28;20177;-81
2023/12/17 07:25:59;;;;;;;1.57;1.47;;;;;;;;;;5110961;27;20228;-80
2023/12/17 07:28:24;;;;;;;2.00;1.73;;;;;;;;;;5099742;28;20195;-80
2023/12/17 07:30:50;;;;;;;1.83;1.63;;;;;;;;;;5113801;28;20195;-80
2023/12/17 07:33:15;;;;;;;1.97;1.50;;;;;;;;;;5107301;28;20515;-80
2023/12/17 07:35:40;;;;;;;3.87;3.57;;;;;;;;;;5107370;28;20203;-80
2023/12/17 07:38:05;;;;;;;8.53;5.20;;;;;;;;;;5105701;27;20179;-80
2023/12/17 07:40:31;;;;;;;3.83;3.30;;;;;;;;;;5110104;28;20176;-80
2023/12/17 07:42:56;;;;;;;6.27;5.47;;;;;;;;;;5102708;28;20174;-80
2023/12/17 07:45:21;;;;;;;2.30;2.10;;;;;;;;;;5125897;27;20214;-79
2023/12/17 07:47:46;;;;;;;2.57;2.37;;;;;;;;;;5111754;27;20251;-80
2023/12/17 07:50:12;;;;;;;2.40;2.17;;;;;;;;;;5127209;27;20219;-80
2023/12/17 07:52:37;;;;;;;2.27;1.97;;;;;;;;;;5124361;27;20179;-79
2023/12/17 07:55:03;;;;;;;2.93;2.63;;;;;;;;;;5112289;27;20188;-82
2023/12/17 07:57:28;;;;;;;3.00;2.80;;;;;;;;;;5115789;27;20247;-80
2023/12/17 07:59:53;;;;;;;2.10;1.90;;;;;;;;;;5113973;27;20203;-79
2023/12/17 08:02:18;;;;;;;2.53;2.33;;;;;;;;;;5112980;27;20172;-79
2023/12/17 08:04:45;;;;;;;9.60;6.73;;;;;;;;;;5109885;27;20180;-79
2023/12/17 08:07:10;;;;;;;2.77;2.50;;;;;;;;;;5116112;27;20304;-78
2023/12/17 08:09:35;;;;;;;4.60;3.90;;;;;;;;;;5108926;28;20223;-78
2023/12/17 08:12:01;;;;;;;7.63;4.83;;;;;;;;;;5114791;27;20231;-78
2023/12/17 08:14:26;;;;;;;4.50;4.10;;;;;;;;;;5131061;27;20184;-78
2023/12/17 08:16:51;;;;;;;9.90;5.13;;;;;;;;;;5100677;27;20267;-77
2023/12/17 08:19:16;;;;;;;8.93;5.33;;;;;;;;;;5109349;27;20172;-77
2023/12/17 08:21:41;;;;;;;6.27;4.60;;;;;;;;;;5118887;27;20191;-77
2023/12/17 08:24:07;;;;;;;4.90;4.00;;;;;;;;;;5110612;27;20176;-77
2023/12/17 08:26:32;;;;;;;4.83;3.20;;;;;;;;;;5109086;27;20183;-77
2023/12/17 08:28:57;;;;;;;4.83;2.83;;;;;;;;;;5118647;27;20173;-76
2023/12/17 08:31:22;;;;;;;4.57;3.30;;;;;;;;;;5130198;27;20333;-76
2023/12/17 08:33:52;;;;;;;6.57;4.17;;;;;;;;;;5115957;27;20168;-76
2023/12/17 08:36:17;;;;;;;8.57;6.97;;;;;;;;;;5109628;28;20200;-76
2023/12/17 08:38:45;;;;;;;3.90;3.00;;;;;;;;;;5130921;27;20179;-76
2023/12/17 08:41:10;;;;;;;4.67;2.40;;;;;;;;;;5107519;27;20172;-76
2023/12/17 08:43:36;;;;;;;1.40;1.30;;;;;;;;;;5125802;27;20201;-76
2023/12/17 08:46:01;;;;;;;1.20;0.97;;;;;;;;;;5130349;27;20572;-76
2023/12/17 08:48:26;;;;;;;2.40;1.93;;;;;;;;;;5130124;27;20207;-76
2023/12/17 08:50:51;;;;;;;11.63;9.40;;;;;;;;;;5115331;27;20279;-76
2023/12/17 08:53:19;;;;;;;7.67;6.53;;;;;;;;;;5120421;27;20228;-76
2023/12/17 08:55:44;;;;;;;2.80;2.50;;;;;;;;;;5109922;27;20157;-76
2023/12/17 08:58:09;;;;;;;2.60;2.23;;;;;;;;;;5119537;27;20175;-76
2023/12/17 09:00:35;;;;;;;4.27;2.93;;;;;;;;;;5127046;27;20180;-76
2023/12/17 09:03:00;;;;;;;2.70;2.30;;;;;;;;;;5111989;27;20224;-76
2023/12/17 09:05:25;;;;;;;3.00;2.70;;;;;;;;;;5126195;27;20275;-76
2023/12/17 09:07:50;;;;;;;3.13;2.23;;;;;;;;;;5116144;27;20235;-76
2023/12/17 09:10:15;;;;;;;3.43;2.20;;;;;;;;;;5124478;27;20238;-76
2023/12/17 09:12:41;;;;;;;3.13;2.30;;;;;;;;;;5115113;27;20172;-76
2023/12/17 09:15:06;;;;;;;5.03;3.73;;;;;;;;;;5122558;27;20203;-76
2023/12/17 09:17:31;;;;;;;3.60;2.90;;;;;;;;;;5118433;27;20183;-76
2023/12/17 09:19:57;;;;;;;5.80;3.90;;;;;;;;;;5103301;27;20180;-76
2023/12/17 09:22:22;;;;;;;4.03;3.27;;;;;;;;;;5112579;27;20213;-76
2023/12/17 09:24:47;;;;;;;2.93;2.67;;;;;;;;;;5130459;27;20270;-76
2023/12/17 09:27:12;;;;;;;3.27;2.50;;;;;;;;;;5112098;27;20266;-76
2023/12/17 09:29:37;;;;;;;2.90;2.00;;;;;;;;;;5112146;27;20291;-75
2023/12/17 09:32:03;;;;;;;2.43;2.03;;;;;;;;;;5115936;27;20210;-76
2023/12/17 09:34:28;;;;;;;3.40;2.47;;;;;;;;;;5135674;27;20167;-76
2023/12/17 09:36:53;;;;;;;3.57;2.53;;;;;;;;;;5117491;27;20242;-76
2023/12/17 09:39:18;;;;;;;3.27;2.10;;;;;;;;;;5118226;27;20246;-76
2023/12/17 09:41:44;;;;;;;7.17;5.23;;;;;;;;;;5125204;27;20180;-76
2023/12/17 09:44:09;;;;;;;11.00;7.43;;;;;;;;;;5112354;27;20261;-76
2023/12/17 09:46:35;;;;;;;6.20;5.00;;;;;;;;;;5116952;27;20240;-76
2023/12/17 09:49:00;;;;;;;3.60;2.83;;;;;;;;;;5118192;27;20179;-76
2023/12/17 09:51:26;;;;;;;3.60;2.57;;;;;;;;;;5118501;27;20199;-76
2023/12/17 09:53:51;;;;;;;4.33;2.60;;;;;;;;;;5116953;27;20229;-76
2023/12/17 09:56:16;;;;;;;4.50;3.40;;;;;;;;;;5120178;27;20262;-76
2023/12/17 09:58:43;;;;;;;3.23;2.50;;;;;;;;;;5117519;27;20176;-76
2023/12/17 10:01:08;;;;;;;2.53;2.30;;;;;;;;;;5115615;27;20208;-76
2023/12/17 10:03:33;;;;;;;2.17;1.93;;;;;;;;;;5117109;27;20203;-76
2023/12/17 10:05:58;;;;;;;1.90;1.70;;;;;;;;;;5134860;27;20175;-76
2023/12/17 10:08:24;;;;;;;1.67;1.57;;;;;;;;;;5117307;27;20216;-76
2023/12/17 10:10:49;;;;;;;1.33;1.23;;;;;;;;;;5109726;27;20198;-76
2023/12/17 10:13:21;;;;;;;1.63;1.30;;;;;;;;;;5114310;27;20176;-76
2023/12/17 10:15:50;;;;;;;1.30;1.20;;;;;;;;;;5133407;27;20177;-76
2023/12/17 10:18:18;;;;;;;1.20;1.10;;;;;;;;;;5111378;27;20180;-76
2023/12/17 10:20:45;;;;;;;1.00;1.00;;;;;;;;;;5117592;27;20167;-76
2023/12/17 10:23:10;;;;;;;1.33;1.10;;;;;;;;;;5111798;27;20197;-77
2023/12/17 10:25:35;;;;;;;1.10;1.10;;;;;;;;;;5130505;27;20171;-77
2023/12/17 10:28:00;;;;;;;2.30;2.00;;;;;;;;;;5129924;27;20191;-77
2023/12/17 10:30:30;;;;;;;2.33;1.30;;;;;;;;;;5117946;27;20190;-77
2023/12/17 10:32:56;;;;;;;1.57;1.47;;;;;;;;;;5124515;27;20199;-77
2023/12/17 10:35:23;;;;;;;1.77;1.33;;;;;;;;;;5110502;27;20172;-77
2023/12/17 10:37:51;;;;;;;2.17;1.80;;;;;;;;;;5113219;27;20200;-77
2023/12/17 10:40:16;;;;;;;3.23;2.10;;;;;;;;;;5115092;27;20220;-77
2023/12/17 10:42:42;;;;;;;2.93;2.53;;;;;;;;;;5124779;27;20252;-77
2023/12/17 10:45:08;;;;;;;3.23;2.80;;;;;;;;;;5112913;27;20258;-77
2023/12/17 10:47:34;;;;;;;4.13;2.90;;;;;;;;;;5128647;27;20180;-77
2023/12/17 10:50:01;;;;;;;3.80;3.20;;;;;;;;;;5116827;27;20204;-77
2023/12/17 10:52:26;;;;;;;4.87;3.70;;;;;;;;;;5137774;27;20180;-77
2023/12/17 10:54:52;;;;;;;4.60;4.07;;;;;;;;;;5115374;27;20180;-77
2023/12/17 10:57:20;;;;;;;4.00;3.60;;;;;;;;;;5136324;27;20190;-77
2023/12/17 10:59:46;;;;;;;4.23;2.80;;;;;;;;;;5119683;27;20175;-77
2023/12/17 11:02:14;;;;;;;3.20;2.90;;;;;;;;;;5105948;27;20184;-77
2023/12/17 11:04:45;;;;;;;9.03;4.63;;;;;;;;;;5114772;27;20187;-77
2023/12/17 11:07:10;;;;;;;5.47;3.40;;;;;;;;;;5115808;27;20195;-77
2023/12/17 11:09:35;;;;;;;6.87;2.70;;;;;;;;;;5112772;27;20263;-77
2023/12/17 11:12:03;;;;;;;7.03;4.03;;;;;;;;;;5124683;27;20264;-77
2023/12/17 11:14:28;;;;;;;6.70;3.40;;;;;;;;;;5112662;27;20187;-77
2023/12/17 11:16:53;;;;;;;9.67;4.57;;;;;;;;;;5123888;27;20184;-77
2023/12/17 11:19:19;;;;;;;6.40;3.50;;;;;;;;;;5103373;28;20177;-77
2023/12/17 11:21:45;;;;;;;15.83;5.90;;;;;;;;;;5124809;27;20176;-77
2023/12/17 11:24:11;;;;;;;4.03;3.10;;;;;;;;;;5105177;28;20168;-77
2023/12/17 11:26:44;;;;;;;3.97;2.70;;;;;;;;;;5115002;28;20174;-76
2023/12/17 11:29:27;;;;;;;2.90;2.30;;;;;;;;;;5113252;28;20389;-76
2023/12/17 11:31:53;;;;;;;6.20;3.10;;;;;;;;;;5120753;27;20220;-76
2023/12/17 11:34:18;;;;;;;4.70;3.93;;;;;;;;;;5111183;27;20215;-76
2023/12/17 11:36:43;;;;;;;3.07;2.73;;;;;;;;;;5111078;28;20192;-76
2023/12/17 11:39:08;;;;;;;4.13;2.10;;;;;;;;;;5111813;28;20186;-77
2023/12/17 11:41:34;;;;;;;2.50;2.13;;;;;;;;;;5129601;27;20172;-77
2023/12/17 11:43:59;;;;;;;3.17;2.87;;;;;;;;;;5106373;28;20262;-77
2023/12/17 11:46:25;;;;;;;3.67;2.80;;;;;;;;;;5105803;28;20183;-77
2023/12/17 11:48:51;;;;;;;2.97;2.50;;;;;;;;;;5117638;28;20180;-77
2023/12/17 11:51:25;;;;;;;5.13;2.80;;;;;;;;;;5109048;28;20214;-77
2023/12/17 11:53:51;;;;;;;3.63;2.57;;;;;;;;;;5102570;27;20177;-77
2023/12/17 11:56:26;;;;;;;3.33;3.00;;;;;;;;;;5119060;28;20168;-77
2023/12/17 11:58:53;;;;;;;5.40;3.87;;;;;;;;;;5116039;28;20173;-77
2023/12/17 12:01:18;;;;;;;4.00;3.20;;;;;;;;;;5104662;28;20186;-77
2023/12/17 12:03:44;;;;;;;5.80;3.87;;;;;;;;;;5124882;27;20183;-77
2023/12/17 12:06:10;;;;;;;4.57;3.87;;;;;;;;;;5120362;28;20182;-77
2023/12/17 12:08:45;;;;;;;5.27;4.70;;;;;;;;;;5114098;28;20246;-78
2023/12/17 12:11:11;;;;;;;3.57;2.90;;;;;;;;;;5121232;27;20202;-78
2023/12/17 12:13:37;;;;;;;4.37;3.00;;;;;;;;;;5130464;27;20264;-78
2023/12/17 12:16:03;;;;;;;3.53;2.80;;;;;;;;;;5110751;28;20180;-78
2023/12/17 12:18:28;;;;;;;3.10;2.80;;;;;;;;;;5108315;28;20179;-78
2023/12/17 12:20:53;;;;;;;3.80;3.03;;;;;;;;;;5129567;27;20188;-78
2023/12/17 12:23:19;;;;;;;4.70;3.40;;;;;;;;;;5112886;28;20188;-78
2023/12/17 12:25:44;;;;;;;4.13;2.70;;;;;;;;;;5119075;28;20186;-78
2023/12/17 12:28:18;;;;;;;2.80;2.20;;;;;;;;;;5111934;28;20540;-78
2023/12/17 12:30:43;;;;;;;4.17;2.63;;;;;;;;;;5110309;28;20198;-78
2023/12/17 12:33:10;;;;;;;3.83;2.80;;;;;;;;;;5109421;28;20272;-78
2023/12/17 12:35:35;;;;;;;2.63;2.33;;;;;;;;;;5111293;28;20205;-78
2023/12/17 12:38:03;;;;;;;5.13;3.60;;;;;;;;;;5119514;27;20225;-78
2023/12/17 12:40:34;;;;;;;3.10;2.77;;;;;;;;;;5115687;27;20219;-78
2023/12/17 12:43:00;;;;;;;5.03;3.10;;;;;;;;;;5129360;27;20204;-78
2023/12/17 12:45:25;;;;;;;4.00;2.90;;;;;;;;;;5115512;27;20253;-78
2023/12/17 12:47:51;;;;;;;4.00;3.50;;;;;;;;;;5116286;27;20255;-78
2023/12/17 12:50:16;;;;;;;5.43;3.20;;;;;;;;;;5114836;27;20190;-78
2023/12/17 12:52:41;;;;;;;6.53;6.00;;;;;;;;;;5117747;27;20228;-78
2023/12/17 12:55:06;;;;;;;5.70;3.57;;;;;;;;;;5112350;27;20265;-78
2023/12/17 12:57:32;;;;;;;4.27;3.87;;;;;;;;;;5132526;27;20437;-78
2023/12/17 12:59:57;;;;;;;3.53;3.23;;;;;;;;;;5110695;27;20195;-78
2023/12/17 13:02:22;;;;;;;4.37;3.30;;;;;;;;;;5109262;27;20235;-78
2023/12/17 13:04:48;;;;;;;3.50;3.07;;;;;;;;;;5126798;27;20172;-78
2023/12/17 13:07:14;;;;;;;3.53;3.23;;;;;;;;;;5111571;27;20190;-78
2023/12/17 13:09:40;;;;;;;4.43;3.47;;;;;;;;;;5128486;27;20222;-77
2023/12/17 13:12:06;;;;;;;3.93;3.53;;;;;;;;;;5110582;27;20183;-77
2023/12/17 13:14:32;;;;;;;6.17;4.43;;;;;;;;;;5121226;27;20214;-77
2023/12/17 13:16:57;;;;;;;9.50;5.57;;;;;;;;;;5113770;27;20182;-78
2023/12/17 13:19:24;;;;;;;6.27;4.70;;;;;;;;;;5132492;27;20176;-77
2023/12/17 13:21:49;;;;;;;3.77;3.47;;;;;;;;;;5127838;27;20186;-78
2023/12/17 13:24:14;;;;;;;3.67;3.13;;;;;;;;;;5111622;27;20186;-77
2023/12/17 13:26:40;;;;;;;4.80;3.67;;;;;;;;;;5115720;27;20267;-77
2023/12/17 13:29:05;;;;;;;9.20;5.90;;;;;;;;;;5121360;27;20179;-77
2023/12/17 13:31:30;;;;;;;6.57;5.13;;;;;;;;;;5112430;27;20245;-77
2023/12/17 13:33:55;;;;;;;4.67;4.23;;;;;;;;;;5118507;27;20164;-77
2023/12/17 13:36:21;;;;;;;4.63;3.60;;;;;;;;;;5116892;27;20259;-77
2023/12/17 13:38:46;;;;;;;4.30;3.70;;;;;;;;;;5129145;27;20176;-77
2023/12/17 13:41:12;;;;;;;6.63;4.83;;;;;;;;;;5114377;27;20247;-77
2023/12/17 13:43:37;;;;;;;5.93;4.10;;;;;;;;;;5115155;27;20172;-77
2023/12/17 13:46:02;;;;;;;5.23;3.37;;;;;;;;;;5120568;27;20198;-77
2023/12/17 13:48:27;;;;;;;4.77;3.53;;;;;;;;;;5115262;27;20206;-77
2023/12/17 13:50:53;;;;;;;4.63;3.70;;;;;;;;;;5130437;27;20511;-77
2023/12/17 13:53:19;;;;;;;4.37;3.27;;;;;;;;;;5112257;27;20452;-77
2023/12/17 13:55:45;;;;;;;3.80;3.40;;;;;;;;;;5114741;27;20198;-77
2023/12/17 13:58:10;;;;;;;4.00;3.60;;;;;;;;;;5124227;27;20200;-77
2023/12/17 14:00:35;;;;;;;3.87;3.30;;;;;;;;;;5107719;28;20193;-77
2023/12/17 14:03:00;;;;;;;6.60;4.00;;;;;;;;;;5109193;27;20182;-77
2023/12/17 14:05:28;;;;;;;3.97;3.03;;;;;;;;;;5113137;27;20202;-76
2023/12/17 14:07:54;;;;;;;4.17;3.27;;;;;;;;;;5109930;27;20184;-77
2023/12/17 14:10:19;;;;;;;5.20;3.87;;;;;;;;;;5113676;27;20230;-76
2023/12/17 14:12:44;;;;;;;6.20;5.10;;;;;;;;;;5109932;27;20206;-77
2023/12/17 14:15:09;;;;;;;3.87;2.67;;;;;;;;;;5114846;27;20169;-77
2023/12/17 14:17:35;;;;;;;3.40;3.00;;;;;;;;;;5125092;27;20520;-77
2023/12/17 14:20:00;;;;;;;3.60;2.50;;;;;;;;;;5127840;27;20253;-77
2023/12/17 14:22:27;;;;;;;2.80;2.60;;;;;;;;;;5109500;28;20190;-77
2023/12/17 14:24:52;;;;;;;3.20;2.90;;;;;;;;;;5130553;27;20187;-77
2023/12/17 14:27:17;;;;;;;4.40;3.00;;;;;;;;;;5127496;27;20271;-77
2023/12/17 14:29:42;;;;;;;3.37;3.07;;;;;;;;;;5131031;27;20195;-77
2023/12/17 14:32:07;;;;;;;4.50;3.60;;;;;;;;;;5120996;27;20180;-77
2023/12/17 14:34:36;;;;;;;4.07;3.43;;;;;;;;;;5105012;27;20256;-77